sensor_id;sensor_type;location;lat;lon;timestamp;P1;durP1;ratioP1;P2;durP2;ratioP2
62616;SDS011;62539;51.190;6.808;2023-04-24T00:02:11;0.98;;;0.50;;
62616;SDS011;62539;51.190;6.808;2023-04-24T00:04:37;0.90;;;0.50;;
62616;SDS011;62539;51.190;6.808;2023-04-24T00:07:06;0.57;;;0.50;;
62616;SDS011;62539;51.190;6.808;2023-04-24T00:09:32;1.60;;;0.80;;
62616;SDS011;62539;51.190;6.808;2023-04-24T00:11:58;1.67;;;0.70;;
62616;SDS011;62539;51.190;6.808;2023-04-24T00:14:24;0.73;;;0.65;;
62616;SDS011;62539;51.190;6.808;2023-04-24T00:16:50;1.02;;;0.60;;
62616;SDS011;62539;51.190;6.808;2023-04-24T00:19:15;0.63;;;0.60;;
62616;SDS011;62539;51.190;6.808;2023-04-24T00:21:42;0.57;;;0.57;;
62616;SDS011;62539;51.190;6.808;2023-04-24T00:24:07;1.00;;;0.80;;
62616;SDS011;62539;51.190;6.808;2023-04-24T00:26:36;1.48;;;0.68;;
62616;SDS011;62539;51.190;6.808;2023-04-24T00:29:02;2.30;;;0.70;;
62616;SDS011;62539;51.190;6.808;2023-04-24T00:31:27;0.82;;;0.80;;
62616;SDS011;62539;51.190;6.808;2023-04-24T00:33:52;1.35;;;0.80;;
62616;SDS011;62539;51.190;6.808;2023-04-24T00:36:18;0.95;;;0.75;;
62616;SDS011;62539;51.190;6.808;2023-04-24T00:38:45;1.88;;;0.70;;
62616;SDS011;62539;51.190;6.808;2023-04-24T00:41:11;1.00;;;0.45;;
62616;SDS011;62539;51.190;6.808;2023-04-24T00:43:36;1.30;;;0.50;;
62616;SDS011;62539;51.190;6.808;2023-04-24T00:46:02;0.93;;;0.70;;
62616;SDS011;62539;51.190;6.808;2023-04-24T00:48:28;2.13;;;0.80;;
62616;SDS011;62539;51.190;6.808;2023-04-24T00:50:54;2.85;;;0.68;;
62616;SDS011;62539;51.190;6.808;2023-04-24T00:53:20;1.45;;;0.63;;
62616;SDS011;62539;51.190;6.808;2023-04-24T00:55:45;1.40;;;0.70;;
62616;SDS011;62539;51.190;6.808;2023-04-24T00:58:11;1.38;;;0.55;;
62616;SDS011;62539;51.190;6.808;2023-04-24T01:00:37;1.83;;;0.90;;
62616;SDS011;62539;51.190;6.808;2023-04-24T01:03:04;0.65;;;0.63;;
62616;SDS011;62539;51.190;6.808;2023-04-24T01:05:30;0.95;;;0.60;;
62616;SDS011;62539;51.190;6.808;2023-04-24T01:07:56;1.60;;;0.85;;
62616;SDS011;62539;51.190;6.808;2023-04-24T01:10:23;2.05;;;0.70;;
62616;SDS011;62539;51.190;6.808;2023-04-24T01:12:52;2.10;;;0.75;;
62616;SDS011;62539;51.190;6.808;2023-04-24T01:15:18;0.77;;;0.75;;
62616;SDS011;62539;51.190;6.808;2023-04-24T01:17:43;0.52;;;0.52;;
62616;SDS011;62539;51.190;6.808;2023-04-24T01:20:10;0.73;;;0.68;;
62616;SDS011;62539;51.190;6.808;2023-04-24T01:22:35;2.38;;;1.23;;
62616;SDS011;62539;51.190;6.808;2023-04-24T01:25:01;1.20;;;0.93;;
62616;SDS011;62539;51.190;6.808;2023-04-24T01:27:28;0.82;;;0.82;;
62616;SDS011;62539;51.190;6.808;2023-04-24T01:29:54;3.10;;;0.90;;
62616;SDS011;62539;51.190;6.808;2023-04-24T01:32:19;1.83;;;1.05;;
62616;SDS011;62539;51.190;6.808;2023-04-24T01:34:45;1.38;;;1.00;;
62616;SDS011;62539;51.190;6.808;2023-04-24T01:37:12;1.08;;;0.85;;
62616;SDS011;62539;51.190;6.808;2023-04-24T01:39:37;1.10;;;0.90;;
62616;SDS011;62539;51.190;6.808;2023-04-24T01:42:04;0.80;;;0.80;;
62616;SDS011;62539;51.190;6.808;2023-04-24T01:44:30;1.80;;;0.70;;
62616;SDS011;62539;51.190;6.808;2023-04-24T01:46:56;1.38;;;0.80;;
62616;SDS011;62539;51.190;6.808;2023-04-24T01:49:22;1.50;;;1.10;;
62616;SDS011;62539;51.190;6.808;2023-04-24T01:51:48;0.93;;;0.75;;
62616;SDS011;62539;51.190;6.808;2023-04-24T01:54:14;1.20;;;0.90;;
62616;SDS011;62539;51.190;6.808;2023-04-24T01:56:40;1.23;;;0.70;;
62616;SDS011;62539;51.190;6.808;2023-04-24T01:59:07;0.70;;;0.70;;
62616;SDS011;62539;51.190;6.808;2023-04-24T02:01:36;2.83;;;0.70;;
62616;SDS011;62539;51.190;6.808;2023-04-24T02:04:03;0.80;;;0.75;;
62616;SDS011;62539;51.190;6.808;2023-04-24T02:06:30;1.85;;;0.85;;
62616;SDS011;62539;51.190;6.808;2023-04-24T02:08:56;1.83;;;1.13;;
62616;SDS011;62539;51.190;6.808;2023-04-24T02:11:24;4.50;;;1.00;;
62616;SDS011;62539;51.190;6.808;2023-04-24T02:13:49;1.48;;;1.08;;
62616;SDS011;62539;51.190;6.808;2023-04-24T02:16:16;1.48;;;1.17;;
62616;SDS011;62539;51.190;6.808;2023-04-24T02:18:42;2.00;;;1.00;;
62616;SDS011;62539;51.190;6.808;2023-04-24T02:21:07;1.08;;;1.05;;
62616;SDS011;62539;51.190;6.808;2023-04-24T02:23:33;2.53;;;1.00;;
62616;SDS011;62539;51.190;6.808;2023-04-24T02:25:58;0.93;;;0.82;;
62616;SDS011;62539;51.190;6.808;2023-04-24T02:28:23;3.33;;;1.05;;
62616;SDS011;62539;51.190;6.808;2023-04-24T02:30:49;1.42;;;1.10;;
62616;SDS011;62539;51.190;6.808;2023-04-24T02:33:16;1.48;;;1.05;;
62616;SDS011;62539;51.190;6.808;2023-04-24T02:35:41;3.13;;;1.33;;
62616;SDS011;62539;51.190;6.808;2023-04-24T02:38:06;1.35;;;0.90;;
62616;SDS011;62539;51.190;6.808;2023-04-24T02:40:32;2.33;;;1.38;;
62616;SDS011;62539;51.190;6.808;2023-04-24T02:42:57;1.08;;;0.90;;
62616;SDS011;62539;51.190;6.808;2023-04-24T02:45:23;1.20;;;1.10;;
62616;SDS011;62539;51.190;6.808;2023-04-24T02:47:48;1.67;;;0.95;;
62616;SDS011;62539;51.190;6.808;2023-04-24T02:50:13;2.47;;;1.08;;
62616;SDS011;62539;51.190;6.808;2023-04-24T02:52:39;1.23;;;0.98;;
62616;SDS011;62539;51.190;6.808;2023-04-24T02:55:05;1.40;;;1.27;;
62616;SDS011;62539;51.190;6.808;2023-04-24T02:57:30;2.47;;;1.52;;
62616;SDS011;62539;51.190;6.808;2023-04-24T02:59:56;1.70;;;1.60;;
62616;SDS011;62539;51.190;6.808;2023-04-24T03:02:21;2.30;;;1.58;;
62616;SDS011;62539;51.190;6.808;2023-04-24T03:04:47;1.30;;;1.00;;
62616;SDS011;62539;51.190;6.808;2023-04-24T03:07:15;1.30;;;1.10;;
62616;SDS011;62539;51.190;6.808;2023-04-24T03:09:41;1.95;;;1.15;;
62616;SDS011;62539;51.190;6.808;2023-04-24T03:12:06;2.85;;;1.48;;
62616;SDS011;62539;51.190;6.808;2023-04-24T03:14:32;1.90;;;1.00;;
62616;SDS011;62539;51.190;6.808;2023-04-24T03:16:57;1.17;;;1.05;;
62616;SDS011;62539;51.190;6.808;2023-04-24T03:19:22;3.72;;;1.10;;
62616;SDS011;62539;51.190;6.808;2023-04-24T03:21:48;3.67;;;1.70;;
62616;SDS011;62539;51.190;6.808;2023-04-24T03:24:14;1.40;;;1.30;;
62616;SDS011;62539;51.190;6.808;2023-04-24T03:26:39;1.83;;;1.10;;
62616;SDS011;62539;51.190;6.808;2023-04-24T03:29:05;1.60;;;1.17;;
62616;SDS011;62539;51.190;6.808;2023-04-24T03:31:30;1.75;;;1.25;;
62616;SDS011;62539;51.190;6.808;2023-04-24T03:33:55;2.50;;;1.38;;
62616;SDS011;62539;51.190;6.808;2023-04-24T03:36:21;1.20;;;1.10;;
62616;SDS011;62539;51.190;6.808;2023-04-24T03:38:46;1.55;;;1.30;;
62616;SDS011;62539;51.190;6.808;2023-04-24T03:41:11;1.25;;;1.10;;
62616;SDS011;62539;51.190;6.808;2023-04-24T03:43:37;1.80;;;1.30;;
62616;SDS011;62539;51.190;6.808;2023-04-24T03:46:03;2.13;;;1.30;;
62616;SDS011;62539;51.190;6.808;2023-04-24T03:48:29;2.80;;;1.38;;
62616;SDS011;62539;51.190;6.808;2023-04-24T03:50:54;1.60;;;1.17;;
62616;SDS011;62539;51.190;6.808;2023-04-24T03:53:20;2.17;;;1.50;;
62616;SDS011;62539;51.190;6.808;2023-04-24T03:55:45;3.03;;;1.40;;
62616;SDS011;62539;51.190;6.808;2023-04-24T03:58:11;3.65;;;1.90;;
62616;SDS011;62539;51.190;6.808;2023-04-24T04:00:38;3.53;;;1.80;;
62616;SDS011;62539;51.190;6.808;2023-04-24T04:03:05;1.92;;;1.60;;
62616;SDS011;62539;51.190;6.808;2023-04-24T04:05:31;1.95;;;1.45;;
62616;SDS011;62539;51.190;6.808;2023-04-24T04:07:56;1.60;;;1.10;;
62616;SDS011;62539;51.190;6.808;2023-04-24T04:10:21;2.90;;;1.50;;
62616;SDS011;62539;51.190;6.808;2023-04-24T04:12:47;1.95;;;1.10;;
62616;SDS011;62539;51.190;6.808;2023-04-24T04:15:12;2.63;;;1.30;;
62616;SDS011;62539;51.190;6.808;2023-04-24T04:17:38;1.48;;;1.27;;
62616;SDS011;62539;51.190;6.808;2023-04-24T04:20:03;1.67;;;1.20;;
62616;SDS011;62539;51.190;6.808;2023-04-24T04:22:34;1.40;;;1.27;;
62616;SDS011;62539;51.190;6.808;2023-04-24T04:24:59;2.97;;;1.55;;
62616;SDS011;62539;51.190;6.808;2023-04-24T04:27:25;2.20;;;1.40;;
62616;SDS011;62539;51.190;6.808;2023-04-24T04:29:51;1.58;;;1.23;;
62616;SDS011;62539;51.190;6.808;2023-04-24T04:32:17;4.03;;;1.50;;
62616;SDS011;62539;51.190;6.808;2023-04-24T04:34:42;5.95;;;1.63;;
62616;SDS011;62539;51.190;6.808;2023-04-24T04:37:10;3.80;;;1.48;;
62616;SDS011;62539;51.190;6.808;2023-04-24T04:39:37;4.55;;;1.95;;
62616;SDS011;62539;51.190;6.808;2023-04-24T04:42:03;2.22;;;1.50;;
62616;SDS011;62539;51.190;6.808;2023-04-24T04:44:28;4.47;;;1.70;;
62616;SDS011;62539;51.190;6.808;2023-04-24T04:46:55;3.83;;;1.58;;
62616;SDS011;62539;51.190;6.808;2023-04-24T04:49:22;4.78;;;1.50;;
62616;SDS011;62539;51.190;6.808;2023-04-24T04:51:48;2.72;;;1.70;;
62616;SDS011;62539;51.190;6.808;2023-04-24T04:54:15;2.72;;;1.50;;
62616;SDS011;62539;51.190;6.808;2023-04-24T04:56:41;1.98;;;1.33;;
62616;SDS011;62539;51.190;6.808;2023-04-24T04:59:06;1.30;;;1.17;;
62616;SDS011;62539;51.190;6.808;2023-04-24T05:01:32;5.47;;;1.60;;
62616;SDS011;62539;51.190;6.808;2023-04-24T05:03:57;2.08;;;1.40;;
62616;SDS011;62539;51.190;6.808;2023-04-24T05:06:22;4.68;;;1.52;;
62616;SDS011;62539;51.190;6.808;2023-04-24T05:08:48;5.55;;;1.60;;
62616;SDS011;62539;51.190;6.808;2023-04-24T05:11:13;2.10;;;1.52;;
62616;SDS011;62539;51.190;6.808;2023-04-24T05:13:39;7.32;;;1.50;;
62616;SDS011;62539;51.190;6.808;2023-04-24T05:16:05;4.25;;;1.25;;
62616;SDS011;62539;51.190;6.808;2023-04-24T05:18:31;8.15;;;1.80;;
62616;SDS011;62539;51.190;6.808;2023-04-24T05:20:56;2.85;;;1.50;;
62616;SDS011;62539;51.190;6.808;2023-04-24T05:23:22;5.55;;;1.45;;
62616;SDS011;62539;51.190;6.808;2023-04-24T05:25:47;4.25;;;1.52;;
62616;SDS011;62539;51.190;6.808;2023-04-24T05:28:13;5.25;;;1.60;;
62616;SDS011;62539;51.190;6.808;2023-04-24T05:30:38;4.47;;;1.70;;
62616;SDS011;62539;51.190;6.808;2023-04-24T05:33:03;1.90;;;1.20;;
62616;SDS011;62539;51.190;6.808;2023-04-24T05:35:29;2.70;;;1.73;;
62616;SDS011;62539;51.190;6.808;2023-04-24T05:37:54;5.47;;;1.77;;
62616;SDS011;62539;51.190;6.808;2023-04-24T05:40:20;1.80;;;1.58;;
62616;SDS011;62539;51.190;6.808;2023-04-24T05:42:45;6.80;;;1.73;;
62616;SDS011;62539;51.190;6.808;2023-04-24T05:45:10;3.65;;;1.70;;
62616;SDS011;62539;51.190;6.808;2023-04-24T05:47:41;6.38;;;1.55;;
62616;SDS011;62539;51.190;6.808;2023-04-24T05:50:07;2.58;;;1.60;;
62616;SDS011;62539;51.190;6.808;2023-04-24T05:52:32;3.50;;;1.60;;
62616;SDS011;62539;51.190;6.808;2023-04-24T05:54:58;4.63;;;1.77;;
62616;SDS011;62539;51.190;6.808;2023-04-24T05:57:23;2.58;;;1.08;;
62616;SDS011;62539;51.190;6.808;2023-04-24T05:59:50;6.38;;;1.50;;
62616;SDS011;62539;51.190;6.808;2023-04-24T06:02:15;3.75;;;1.02;;
62616;SDS011;62539;51.190;6.808;2023-04-24T06:04:41;18.80;;;1.83;;
62616;SDS011;62539;51.190;6.808;2023-04-24T06:07:06;5.47;;;1.67;;
62616;SDS011;62539;51.190;6.808;2023-04-24T06:09:32;6.13;;;1.40;;
62616;SDS011;62539;51.190;6.808;2023-04-24T06:11:57;1.95;;;1.10;;
62616;SDS011;62539;51.190;6.808;2023-04-24T06:14:24;6.45;;;1.30;;
62616;SDS011;62539;51.190;6.808;2023-04-24T06:16:50;2.30;;;1.13;;
62616;SDS011;62539;51.190;6.808;2023-04-24T06:19:15;4.15;;;1.13;;
62616;SDS011;62539;51.190;6.808;2023-04-24T06:21:41;2.67;;;1.20;;
62616;SDS011;62539;51.190;6.808;2023-04-24T06:24:06;4.57;;;1.10;;
62616;SDS011;62539;51.190;6.808;2023-04-24T06:26:32;2.60;;;1.50;;
62616;SDS011;62539;51.190;6.808;2023-04-24T06:28:57;3.72;;;1.40;;
62616;SDS011;62539;51.190;6.808;2023-04-24T06:31:24;3.20;;;1.10;;
62616;SDS011;62539;51.190;6.808;2023-04-24T06:33:49;1.35;;;1.20;;
62616;SDS011;62539;51.190;6.808;2023-04-24T06:36:15;1.38;;;1.08;;
62616;SDS011;62539;51.190;6.808;2023-04-24T06:38:41;4.07;;;1.30;;
62616;SDS011;62539;51.190;6.808;2023-04-24T06:41:06;3.33;;;1.20;;
62616;SDS011;62539;51.190;6.808;2023-04-24T06:43:32;4.57;;;1.42;;
62616;SDS011;62539;51.190;6.808;2023-04-24T06:45:59;3.97;;;1.13;;
62616;SDS011;62539;51.190;6.808;2023-04-24T06:48:25;4.15;;;0.98;;
62616;SDS011;62539;51.190;6.808;2023-04-24T06:50:51;3.65;;;1.30;;
62616;SDS011;62539;51.190;6.808;2023-04-24T06:53:17;3.30;;;1.05;;
62616;SDS011;62539;51.190;6.808;2023-04-24T06:55:42;6.10;;;0.90;;
62616;SDS011;62539;51.190;6.808;2023-04-24T06:58:10;2.53;;;1.20;;
62616;SDS011;62539;51.190;6.808;2023-04-24T07:00:36;2.97;;;1.10;;
62616;SDS011;62539;51.190;6.808;2023-04-24T07:03:02;4.63;;;0.88;;
62616;SDS011;62539;51.190;6.808;2023-04-24T07:05:30;3.38;;;1.10;;
62616;SDS011;62539;51.190;6.808;2023-04-24T07:07:56;3.00;;;1.13;;
62616;SDS011;62539;51.190;6.808;2023-04-24T07:10:23;4.15;;;1.13;;
62616;SDS011;62539;51.190;6.808;2023-04-24T07:12:49;9.48;;;1.15;;
62616;SDS011;62539;51.190;6.808;2023-04-24T07:15:14;2.42;;;1.60;;
62616;SDS011;62539;51.190;6.808;2023-04-24T07:17:41;1.17;;;0.90;;
62616;SDS011;62539;51.190;6.808;2023-04-24T07:20:09;3.33;;;0.93;;
62616;SDS011;62539;51.190;6.808;2023-04-24T07:22:37;0.60;;;0.60;;
62616;SDS011;62539;51.190;6.808;2023-04-24T07:25:03;3.85;;;0.73;;
62616;SDS011;62539;51.190;6.808;2023-04-24T07:27:29;11.57;;;1.10;;
62616;SDS011;62539;51.190;6.808;2023-04-24T07:29:55;26.58;;;8.75;;
62616;SDS011;62539;51.190;6.808;2023-04-24T07:32:20;66.25;;;21.48;;
62616;SDS011;62539;51.190;6.808;2023-04-24T07:34:46;82.95;;;27.33;;
62616;SDS011;62539;51.190;6.808;2023-04-24T07:37:11;94.05;;;28.25;;
62616;SDS011;62539;51.190;6.808;2023-04-24T07:39:37;79.45;;;27.48;;
62616;SDS011;62539;51.190;6.808;2023-04-24T07:42:02;79.38;;;27.23;;
62616;SDS011;62539;51.190;6.808;2023-04-24T07:44:28;72.32;;;22.80;;
62616;SDS011;62539;51.190;6.808;2023-04-24T07:46:53;60.28;;;21.98;;
62616;SDS011;62539;51.190;6.808;2023-04-24T07:49:20;50.97;;;18.40;;
62616;SDS011;62539;51.190;6.808;2023-04-24T07:51:46;46.08;;;16.65;;
62616;SDS011;62539;51.190;6.808;2023-04-24T07:54:11;57.92;;;19.10;;
62616;SDS011;62539;51.190;6.808;2023-04-24T07:56:37;45.10;;;15.60;;
62616;SDS011;62539;51.190;6.808;2023-04-24T07:59:06;44.08;;;14.38;;
62616;SDS011;62539;51.190;6.808;2023-04-24T08:01:32;47.80;;;15.30;;
62616;SDS011;62539;51.190;6.808;2023-04-24T08:03:57;40.53;;;14.75;;
62616;SDS011;62539;51.190;6.808;2023-04-24T08:06:23;43.50;;;15.10;;
62616;SDS011;62539;51.190;6.808;2023-04-24T08:08:49;41.80;;;14.23;;
62616;SDS011;62539;51.190;6.808;2023-04-24T08:11:14;42.53;;;15.20;;
62616;SDS011;62539;51.190;6.808;2023-04-24T08:13:39;40.38;;;13.05;;
62616;SDS011;62539;51.190;6.808;2023-04-24T08:16:05;45.72;;;15.65;;
62616;SDS011;62539;51.190;6.808;2023-04-24T08:18:30;40.00;;;14.75;;
62616;SDS011;62539;51.190;6.808;2023-04-24T08:20:56;33.10;;;12.95;;
62616;SDS011;62539;51.190;6.808;2023-04-24T08:23:26;29.13;;;10.93;;
62616;SDS011;62539;51.190;6.808;2023-04-24T08:25:51;39.13;;;14.82;;
62616;SDS011;62539;51.190;6.808;2023-04-24T08:28:17;34.20;;;13.00;;
62616;SDS011;62539;51.190;6.808;2023-04-24T08:30:45;38.85;;;12.02;;
62616;SDS011;62539;51.190;6.808;2023-04-24T08:33:19;38.13;;;12.50;;
62616;SDS011;62539;51.190;6.808;2023-04-24T08:35:48;34.10;;;12.27;;
62616;SDS011;62539;51.190;6.808;2023-04-24T08:38:13;34.30;;;13.30;;
62616;SDS011;62539;51.190;6.808;2023-04-24T08:40:40;38.42;;;13.45;;
62616;SDS011;62539;51.190;6.808;2023-04-24T08:43:06;36.85;;;13.38;;
62616;SDS011;62539;51.190;6.808;2023-04-24T08:45:32;29.73;;;11.07;;
62616;SDS011;62539;51.190;6.808;2023-04-24T08:47:58;35.97;;;13.88;;
62616;SDS011;62539;51.190;6.808;2023-04-24T08:50:25;34.67;;;13.55;;
62616;SDS011;62539;51.190;6.808;2023-04-24T08:52:51;35.22;;;12.77;;
62616;SDS011;62539;51.190;6.808;2023-04-24T08:55:18;40.88;;;14.02;;
62616;SDS011;62539;51.190;6.808;2023-04-24T08:57:45;35.63;;;12.00;;
62616;SDS011;62539;51.190;6.808;2023-04-24T09:00:18;27.05;;;10.48;;
62616;SDS011;62539;51.190;6.808;2023-04-24T09:02:45;37.58;;;12.63;;
62616;SDS011;62539;51.190;6.808;2023-04-24T09:05:14;28.08;;;12.18;;
62616;SDS011;62539;51.190;6.808;2023-04-24T09:07:45;36.05;;;11.30;;
62616;SDS011;62539;51.190;6.808;2023-04-24T09:10:17;30.77;;;12.45;;
62616;SDS011;62539;51.190;6.808;2023-04-24T09:12:43;34.08;;;12.68;;
62616;SDS011;62539;51.190;6.808;2023-04-24T09:15:09;31.15;;;11.45;;
62616;SDS011;62539;51.190;6.808;2023-04-24T09:17:36;30.48;;;11.93;;
62616;SDS011;62539;51.190;6.808;2023-04-24T09:20:02;33.95;;;12.10;;
62616;SDS011;62539;51.190;6.808;2023-04-24T09:22:29;28.35;;;11.05;;
62616;SDS011;62539;51.190;6.808;2023-04-24T09:25:02;27.77;;;9.82;;
62616;SDS011;62539;51.190;6.808;2023-04-24T09:27:31;32.42;;;10.65;;
62616;SDS011;62539;51.190;6.808;2023-04-24T09:29:57;25.52;;;10.45;;
62616;SDS011;62539;51.190;6.808;2023-04-24T09:32:23;26.50;;;10.10;;
62616;SDS011;62539;51.190;6.808;2023-04-24T09:35:04;28.77;;;10.07;;
62616;SDS011;62539;51.190;6.808;2023-04-24T09:37:35;26.65;;;9.60;;
62616;SDS011;62539;51.190;6.808;2023-04-24T09:40:13;30.67;;;9.65;;
62616;SDS011;62539;51.190;6.808;2023-04-24T09:42:44;29.02;;;9.90;;
62616;SDS011;62539;51.190;6.808;2023-04-24T09:45:18;27.95;;;9.95;;
62616;SDS011;62539;51.190;6.808;2023-04-24T09:47:45;24.25;;;9.63;;
62616;SDS011;62539;51.190;6.808;2023-04-24T09:50:11;22.70;;;9.82;;
62616;SDS011;62539;51.190;6.808;2023-04-24T09:52:45;32.33;;;10.45;;
62616;SDS011;62539;51.190;6.808;2023-04-24T09:55:21;27.52;;;9.73;;
62616;SDS011;62539;51.190;6.808;2023-04-24T09:57:53;26.17;;;9.32;;
62616;SDS011;62539;51.190;6.808;2023-04-24T10:00:25;34.00;;;10.82;;
62616;SDS011;62539;51.190;6.808;2023-04-24T10:05:30;24.67;;;10.05;;
62616;SDS011;62539;51.190;6.808;2023-04-24T10:07:59;29.08;;;9.60;;
62616;SDS011;62539;51.190;6.808;2023-04-24T10:10:27;28.67;;;8.77;;
62616;SDS011;62539;51.190;6.808;2023-04-24T10:12:54;20.70;;;8.90;;
62616;SDS011;62539;51.190;6.808;2023-04-24T10:15:20;25.23;;;9.50;;
62616;SDS011;62539;51.190;6.808;2023-04-24T10:17:49;26.15;;;9.75;;
62616;SDS011;62539;51.190;6.808;2023-04-24T10:20:23;23.70;;;8.70;;
62616;SDS011;62539;51.190;6.808;2023-04-24T10:22:54;25.38;;;9.75;;
62616;SDS011;62539;51.190;6.808;2023-04-24T10:25:20;26.60;;;9.13;;
62616;SDS011;62539;51.190;6.808;2023-04-24T10:27:48;21.23;;;8.70;;
62616;SDS011;62539;51.190;6.808;2023-04-24T10:30:16;21.17;;;8.63;;
62616;SDS011;62539;51.190;6.808;2023-04-24T10:32:44;22.65;;;8.15;;
62616;SDS011;62539;51.190;6.808;2023-04-24T10:35:10;21.27;;;9.43;;
62616;SDS011;62539;51.190;6.808;2023-04-24T10:37:42;23.15;;;8.75;;
62616;SDS011;62539;51.190;6.808;2023-04-24T10:40:11;18.63;;;7.43;;
62616;SDS011;62539;51.190;6.808;2023-04-24T10:42:46;17.92;;;8.20;;
62616;SDS011;62539;51.190;6.808;2023-04-24T10:45:17;21.50;;;7.90;;
62616;SDS011;62539;51.190;6.808;2023-04-24T10:48:07;20.23;;;8.27;;
62616;SDS011;62539;51.190;6.808;2023-04-24T10:50:42;15.95;;;7.53;;
62616;SDS011;62539;51.190;6.808;2023-04-24T10:53:14;26.60;;;8.45;;
62616;SDS011;62539;51.190;6.808;2023-04-24T10:55:43;23.57;;;7.60;;
62616;SDS011;62539;51.190;6.808;2023-04-24T10:58:12;19.75;;;8.13;;
62616;SDS011;62539;51.190;6.808;2023-04-24T11:00:38;20.42;;;7.82;;
62616;SDS011;62539;51.190;6.808;2023-04-24T11:03:06;19.50;;;8.35;;
62616;SDS011;62539;51.190;6.808;2023-04-24T11:05:49;21.02;;;7.45;;
62616;SDS011;62539;51.190;6.808;2023-04-24T11:08:22;17.73;;;7.18;;
62616;SDS011;62539;51.190;6.808;2023-04-24T11:16:21;25.10;;;8.13;;
62616;SDS011;62539;51.190;6.808;2023-04-24T11:21:55;43.58;;;9.65;;
62616;SDS011;62539;51.190;6.808;2023-04-24T11:24:29;33.55;;;7.93;;
62616;SDS011;62539;51.190;6.808;2023-04-24T11:29:38;25.17;;;7.53;;
62616;SDS011;62539;51.190;6.808;2023-04-24T11:32:17;25.77;;;7.78;;
62616;SDS011;62539;51.190;6.808;2023-04-24T11:34:50;25.17;;;8.05;;
62616;SDS011;62539;51.190;6.808;2023-04-24T11:37:17;23.40;;;7.72;;
62616;SDS011;62539;51.190;6.808;2023-04-24T11:39:43;20.98;;;7.68;;
62616;SDS011;62539;51.190;6.808;2023-04-24T11:42:08;13.88;;;4.90;;
62616;SDS011;62539;51.190;6.808;2023-04-24T11:44:34;11.75;;;3.80;;
62616;SDS011;62539;51.190;6.808;2023-04-24T11:47:04;23.52;;;4.57;;
62616;SDS011;62539;51.190;6.808;2023-04-24T11:49:31;17.13;;;4.70;;
62616;SDS011;62539;51.190;6.808;2023-04-24T11:51:57;12.77;;;3.55;;
62616;SDS011;62539;51.190;6.808;2023-04-24T11:54:26;12.13;;;3.60;;
62616;SDS011;62539;51.190;6.808;2023-04-24T11:56:51;7.55;;;2.50;;
62616;SDS011;62539;51.190;6.808;2023-04-24T11:59:17;10.82;;;3.63;;
62616;SDS011;62539;51.190;6.808;2023-04-24T12:01:43;8.38;;;3.33;;
62616;SDS011;62539;51.190;6.808;2023-04-24T12:04:10;8.00;;;3.10;;
62616;SDS011;62539;51.190;6.808;2023-04-24T12:06:36;13.95;;;5.00;;
62616;SDS011;62539;51.190;6.808;2023-04-24T12:09:02;13.93;;;4.72;;
62616;SDS011;62539;51.190;6.808;2023-04-24T12:11:27;15.15;;;5.72;;
62616;SDS011;62539;51.190;6.808;2023-04-24T12:13:53;14.32;;;5.50;;
62616;SDS011;62539;51.190;6.808;2023-04-24T12:16:19;18.60;;;5.68;;
62616;SDS011;62539;51.190;6.808;2023-04-24T12:18:45;16.95;;;5.68;;
62616;SDS011;62539;51.190;6.808;2023-04-24T12:21:29;11.90;;;4.97;;
62616;SDS011;62539;51.190;6.808;2023-04-24T12:23:56;15.13;;;5.55;;
62616;SDS011;62539;51.190;6.808;2023-04-24T12:26:22;10.40;;;5.05;;
62616;SDS011;62539;51.190;6.808;2023-04-24T12:28:49;21.42;;;5.32;;
62616;SDS011;62539;51.190;6.808;2023-04-24T12:31:15;15.88;;;5.78;;
62616;SDS011;62539;51.190;6.808;2023-04-24T12:33:42;16.42;;;5.45;;
62616;SDS011;62539;51.190;6.808;2023-04-24T12:36:11;13.85;;;5.40;;
62616;SDS011;62539;51.190;6.808;2023-04-24T12:38:37;15.07;;;4.65;;
62616;SDS011;62539;51.190;6.808;2023-04-24T12:41:07;14.05;;;5.63;;
62616;SDS011;62539;51.190;6.808;2023-04-24T12:43:35;11.20;;;5.07;;
62616;SDS011;62539;51.190;6.808;2023-04-24T12:46:01;17.08;;;4.90;;
62616;SDS011;62539;51.190;6.808;2023-04-24T12:48:28;14.52;;;4.75;;
62616;SDS011;62539;51.190;6.808;2023-04-24T12:50:54;16.02;;;5.03;;
62616;SDS011;62539;51.190;6.808;2023-04-24T12:53:22;14.25;;;5.13;;
62616;SDS011;62539;51.190;6.808;2023-04-24T12:55:47;10.05;;;3.92;;
62616;SDS011;62539;51.190;6.808;2023-04-24T12:58:18;11.63;;;4.30;;
62616;SDS011;62539;51.190;6.808;2023-04-24T13:00:45;19.00;;;5.30;;
62616;SDS011;62539;51.190;6.808;2023-04-24T13:03:11;14.35;;;4.38;;
62616;SDS011;62539;51.190;6.808;2023-04-24T13:05:38;15.27;;;4.47;;
62616;SDS011;62539;51.190;6.808;2023-04-24T13:08:03;11.30;;;4.70;;
62616;SDS011;62539;51.190;6.808;2023-04-24T13:10:29;11.82;;;4.38;;
62616;SDS011;62539;51.190;6.808;2023-04-24T13:12:55;16.88;;;4.60;;
62616;SDS011;62539;51.190;6.808;2023-04-24T13:15:21;14.75;;;4.63;;
62616;SDS011;62539;51.190;6.808;2023-04-24T13:17:47;11.20;;;4.30;;
62616;SDS011;62539;51.190;6.808;2023-04-24T13:20:12;23.35;;;4.63;;
62616;SDS011;62539;51.190;6.808;2023-04-24T13:22:37;12.85;;;4.28;;
62616;SDS011;62539;51.190;6.808;2023-04-24T13:25:03;17.40;;;4.30;;
62616;SDS011;62539;51.190;6.808;2023-04-24T13:27:30;16.48;;;4.78;;
62616;SDS011;62539;51.190;6.808;2023-04-24T13:29:56;10.18;;;3.83;;
62616;SDS011;62539;51.190;6.808;2023-04-24T13:32:21;17.90;;;4.70;;
62616;SDS011;62539;51.190;6.808;2023-04-24T13:34:47;13.77;;;5.03;;
62616;SDS011;62539;51.190;6.808;2023-04-24T13:37:12;15.02;;;4.50;;
62616;SDS011;62539;51.190;6.808;2023-04-24T13:39:38;17.38;;;4.40;;
62616;SDS011;62539;51.190;6.808;2023-04-24T13:42:03;9.63;;;4.50;;
62616;SDS011;62539;51.190;6.808;2023-04-24T13:44:28;16.58;;;4.70;;
62616;SDS011;62539;51.190;6.808;2023-04-24T13:46:55;9.43;;;3.88;;
62616;SDS011;62539;51.190;6.808;2023-04-24T13:49:23;17.75;;;3.65;;
62616;SDS011;62539;51.190;6.808;2023-04-24T13:51:51;13.57;;;3.60;;
62616;SDS011;62539;51.190;6.808;2023-04-24T13:54:18;10.20;;;4.05;;
62616;SDS011;62539;51.190;6.808;2023-04-24T13:56:43;11.02;;;3.63;;
62616;SDS011;62539;51.190;6.808;2023-04-24T13:59:09;11.55;;;3.50;;
62616;SDS011;62539;51.190;6.808;2023-04-24T14:01:37;10.15;;;3.42;;
62616;SDS011;62539;51.190;6.808;2023-04-24T14:04:03;12.90;;;3.65;;
62616;SDS011;62539;51.190;6.808;2023-04-24T14:06:28;9.57;;;3.60;;
62616;SDS011;62539;51.190;6.808;2023-04-24T14:08:54;12.38;;;3.45;;
62616;SDS011;62539;51.190;6.808;2023-04-24T14:11:19;10.07;;;4.18;;
62616;SDS011;62539;51.190;6.808;2023-04-24T14:13:45;12.60;;;3.70;;
62616;SDS011;62539;51.190;6.808;2023-04-24T14:16:11;10.43;;;3.67;;
62616;SDS011;62539;51.190;6.808;2023-04-24T14:18:37;15.52;;;3.80;;
62616;SDS011;62539;51.190;6.808;2023-04-24T14:21:03;13.63;;;3.95;;
62616;SDS011;62539;51.190;6.808;2023-04-24T14:23:29;13.73;;;4.30;;
62616;SDS011;62539;51.190;6.808;2023-04-24T14:25:55;17.30;;;3.92;;
62616;SDS011;62539;51.190;6.808;2023-04-24T14:28:22;13.35;;;3.55;;
62616;SDS011;62539;51.190;6.808;2023-04-24T14:30:47;9.93;;;3.22;;
62616;SDS011;62539;51.190;6.808;2023-04-24T14:33:13;14.10;;;3.45;;
62616;SDS011;62539;51.190;6.808;2023-04-24T14:35:40;16.23;;;4.13;;
62616;SDS011;62539;51.190;6.808;2023-04-24T14:38:09;11.70;;;3.43;;
62616;SDS011;62539;51.190;6.808;2023-04-24T14:40:35;15.45;;;3.20;;
62616;SDS011;62539;51.190;6.808;2023-04-24T14:43:01;9.02;;;3.30;;
62616;SDS011;62539;51.190;6.808;2023-04-24T14:45:27;11.70;;;3.90;;
62616;SDS011;62539;51.190;6.808;2023-04-24T14:47:53;13.00;;;3.55;;
62616;SDS011;62539;51.190;6.808;2023-04-24T14:50:20;15.73;;;3.92;;
62616;SDS011;62539;51.190;6.808;2023-04-24T14:52:45;6.78;;;3.25;;